createdAt,value
2018-07-31T00:02:17.139Z,0.30
2018-07-31T00:04:51.758Z,0.30
2018-07-31T00:07:20.798Z,0.23
2018-07-31T00:09:54.828Z,0.40
2018-07-31T00:12:36.092Z,0.23
2018-07-31T00:15:08.313Z,0.13
2018-07-31T00:17:45.991Z,0.23
2018-07-31T00:20:26.108Z,0.30
2018-07-31T00:22:55.882Z,0.40
2018-07-31T00:25:34.556Z,0.30
2018-07-31T00:28:08.806Z,0.30
2018-07-31T00:30:43.574Z,0.20
2018-07-31T00:33:13.044Z,0.10
2018-07-31T00:35:47.248Z,0.42
2018-07-31T00:38:18.615Z,0.40
2018-07-31T00:40:54.856Z,0.40
2018-07-31T00:43:35.213Z,0.50
2018-07-31T00:46:03.766Z,0.20
2018-07-31T00:48:39.858Z,0.42
2018-07-31T00:51:09.188Z,0.40
2018-07-31T00:53:37.867Z,0.20
2018-07-31T00:56:16.311Z,0.33
2018-07-31T00:58:57.661Z,0.20
2018-07-31T01:01:31.829Z,0.25
2018-07-31T01:04:11.975Z,0.23
2018-07-31T01:06:55.610Z,0.28
2018-07-31T01:09:31.087Z,0.30
2018-07-31T01:12:02.301Z,0.35
2018-07-31T01:14:36.322Z,0.20
2018-07-31T01:17:10.351Z,0.30
2018-07-31T01:19:39.657Z,0.20
2018-07-31T01:22:13.335Z,0.23
2018-07-31T01:24:47.617Z,0.20
2018-07-31T01:27:16.671Z,0.20
2018-07-31T01:29:46.293Z,0.30
2018-07-31T01:32:20.400Z,0.30
2018-07-31T01:34:56.347Z,0.13
2018-07-31T01:37:25.695Z,0.23
2018-07-31T01:39:54.080Z,0.17
2018-07-31T01:42:23.951Z,0.30
2018-07-31T01:44:52.592Z,0.10
2018-07-31T01:47:30.387Z,0.30
2018-07-31T01:50:00.277Z,0.20
2018-07-31T01:52:34.539Z,0.30
2018-07-31T01:55:03.729Z,0.42
2018-07-31T01:57:35.533Z,0.50
2018-07-31T02:00:07.245Z,0.42
2018-07-31T02:02:36.030Z,0.60
2018-07-31T02:05:04.917Z,0.75
2018-07-31T02:07:33.684Z,0.25
2018-07-31T02:10:03.539Z,0.30
2018-07-31T02:12:50.662Z,0.40
2018-07-31T02:15:25.484Z,0.30
2018-07-31T02:18:00.140Z,0.50
2018-07-31T02:20:29.224Z,0.50
2018-07-31T02:23:05.443Z,0.53
2018-07-31T02:25:40.821Z,0.28
2018-07-31T02:28:25.395Z,0.40
2018-07-31T02:30:54.296Z,1.20
2018-07-31T02:33:26.095Z,0.30
2018-07-31T02:35:54.753Z,0.60
2018-07-31T02:38:23.313Z,0.37
2018-07-31T02:40:51.984Z,1.17
2018-07-31T02:43:21.770Z,0.40
2018-07-31T02:45:50.406Z,0.50
2018-07-31T02:48:34.017Z,0.50
2018-07-31T02:51:08.553Z,0.60
2018-07-31T02:53:37.807Z,0.60
2018-07-31T02:56:06.538Z,0.65
2018-07-31T02:58:36.173Z,0.68
2018-07-31T03:01:04.968Z,0.50
2018-07-31T03:03:47.684Z,0.53
2018-07-31T03:06:17.420Z,0.60
2018-07-31T03:08:51.956Z,0.50
2018-07-31T03:11:35.126Z,0.50
2018-07-31T03:14:11.393Z,0.50
2018-07-31T03:16:40.617Z,0.50
2018-07-31T03:19:19.036Z,0.42
2018-07-31T03:21:48.222Z,0.50
2018-07-31T03:24:29.671Z,0.40
2018-07-31T03:27:00.852Z,0.30
2018-07-31T03:29:46.256Z,0.55
2018-07-31T03:32:15.509Z,0.40
2018-07-31T03:34:44.240Z,0.45
2018-07-31T03:37:15.996Z,0.23
2018-07-31T03:39:47.746Z,0.20
2018-07-31T03:42:21.824Z,0.50
2018-07-31T03:44:52.994Z,0.40
2018-07-31T03:47:27.722Z,0.50
2018-07-31T03:50:11.263Z,0.55
2018-07-31T03:52:49.731Z,0.50
2018-07-31T03:55:24.505Z,0.30
2018-07-31T03:58:05.782Z,0.37
2018-07-31T04:00:35.703Z,0.40
2018-07-31T04:03:13.560Z,0.42
2018-07-31T04:05:41.876Z,0.50
2018-07-31T04:08:10.425Z,1.67
2018-07-31T04:11:00.547Z,0.70
2018-07-31T04:13:41.083Z,0.37
2018-07-31T04:16:09.721Z,0.50
2018-07-31T04:18:38.688Z,0.40
2018-07-31T04:21:09.697Z,0.50
2018-07-31T04:23:40.833Z,0.57
2018-07-31T04:26:15.316Z,0.60
2018-07-31T04:28:49.852Z,0.42
2018-07-31T04:31:19.006Z,0.50
2018-07-31T04:33:47.661Z,0.37
2018-07-31T04:36:25.682Z,0.37
2018-07-31T04:39:00.191Z,0.60
2018-07-31T04:41:36.051Z,0.37
2018-07-31T04:44:05.535Z,0.30
2018-07-31T04:46:37.285Z,0.60
2018-07-31T04:49:05.689Z,0.50
2018-07-31T04:51:43.930Z,0.50
2018-07-31T04:54:13.052Z,0.40
2018-07-31T04:56:43.050Z,0.50
2018-07-31T04:59:17.411Z,0.47
2018-07-31T05:01:46.262Z,0.35
2018-07-31T05:04:18.069Z,0.42
2018-07-31T05:06:46.670Z,0.35
2018-07-31T05:09:15.419Z,0.50
2018-07-31T05:11:44.188Z,0.60
2018-07-31T05:14:20.507Z,1.30
2018-07-31T05:16:51.958Z,0.50
2018-07-31T05:19:23.620Z,0.50
2018-07-31T05:21:53.288Z,0.50
2018-07-31T05:24:22.464Z,0.70
2018-07-31T05:26:50.900Z,0.60
2018-07-31T05:29:22.509Z,0.50
2018-07-31T05:31:54.634Z,0.70
2018-07-31T05:34:24.257Z,0.50
2018-07-31T05:36:53.869Z,0.88
2018-07-31T05:39:22.449Z,0.72
2018-07-31T05:41:51.038Z,0.72
2018-07-31T05:44:20.861Z,0.75
2018-07-31T05:47:02.464Z,0.78
2018-07-31T05:49:36.921Z,0.60
2018-07-31T05:52:06.508Z,0.50
2018-07-31T05:54:51.137Z,0.60
2018-07-31T05:57:20.733Z,0.75
2018-07-31T05:59:49.499Z,0.60
2018-07-31T06:02:27.860Z,0.90
2018-07-31T06:04:57.028Z,0.68
2018-07-31T06:07:38.971Z,0.65
2018-07-31T06:10:15.155Z,0.53
2018-07-31T06:12:49.676Z,0.55
2018-07-31T06:15:25.309Z,1.17
2018-07-31T06:17:53.684Z,0.90
2018-07-31T06:20:22.424Z,0.72
2018-07-31T06:22:54.192Z,0.70
2018-07-31T06:25:23.841Z,0.72
2018-07-31T06:27:53.642Z,0.70
2018-07-31T06:30:22.389Z,0.62
2018-07-31T06:32:51.415Z,0.60
2018-07-31T06:35:20.941Z,0.60
2018-07-31T06:37:51.171Z,0.95
2018-07-31T06:40:24.341Z,0.90
2018-07-31T06:45:51.541Z,0.70
2018-07-31T06:48:20.770Z,0.60
2018-07-31T06:50:49.388Z,0.60
2018-07-31T06:53:21.371Z,0.50
2018-07-31T06:55:55.357Z,0.60
2018-07-31T06:58:30.184Z,0.75
2018-07-31T07:01:04.898Z,0.50
2018-07-31T07:03:34.177Z,0.62
2018-07-31T07:06:08.527Z,0.53
2018-07-31T07:08:37.778Z,0.50
2018-07-31T07:11:06.839Z,0.93
2018-07-31T07:13:35.404Z,0.42
2018-07-31T07:16:04.300Z,0.50
2018-07-31T07:18:47.841Z,0.40
2018-07-31T07:21:24.287Z,0.50
2018-07-31T07:24:05.492Z,0.55
2018-07-31T07:26:46.380Z,0.47
2018-07-31T07:29:20.672Z,0.50
2018-07-31T07:31:50.029Z,0.42
2018-07-31T07:34:18.716Z,0.37
2018-07-31T07:37:04.942Z,0.68
2018-07-31T07:39:42.037Z,0.60
2018-07-31T07:42:15.975Z,0.42
2018-07-31T07:44:50.647Z,0.10
2018-07-31T07:47:19.231Z,0.20
2018-07-31T07:49:50.608Z,0.25
2018-07-31T07:52:20.370Z,0.42
2018-07-31T07:54:58.619Z,0.35
2018-07-31T08:00:22.366Z,0.28
2018-07-31T08:03:03.497Z,0.28
2018-07-31T08:05:36.241Z,0.20
2018-07-31T08:08:09.129Z,0.08
2018-07-31T08:10:40.352Z,0.10
2018-07-31T08:13:09.304Z,0.23
2018-07-31T08:15:54.102Z,0.20
2018-07-31T08:18:22.542Z,0.40
2018-07-31T08:20:51.381Z,1.70
2018-07-31T08:23:21.257Z,1.35
2018-07-31T08:25:50.957Z,0.72
2018-07-31T08:28:19.950Z,0.68
2018-07-31T08:30:48.860Z,0.68
2018-07-31T08:33:17.856Z,1.00
2018-07-31T08:35:46.318Z,0.90
2018-07-31T08:38:16.391Z,0.60
2018-07-31T08:40:44.968Z,0.30
2018-07-31T08:43:13.592Z,0.40
2018-07-31T08:45:42.994Z,0.40
2018-07-31T08:48:11.421Z,0.40
2018-07-31T08:50:40.207Z,0.30
2018-07-31T08:53:08.850Z,0.20
2018-07-31T08:55:37.730Z,0.13
2018-07-31T08:58:06.704Z,0.40
2018-07-31T09:00:35.620Z,0.20
2018-07-31T09:03:05.353Z,0.20
2018-07-31T09:05:33.900Z,0.20
2018-07-31T09:08:02.828Z,0.40
2018-07-31T09:10:31.336Z,0.50
2018-07-31T09:12:59.996Z,0.50
2018-07-31T09:15:28.822Z,0.35
2018-07-31T09:17:58.884Z,1.75
2018-07-31T09:20:27.462Z,0.37
2018-07-31T09:50:52.092Z,6.05
2018-07-31T09:53:20.831Z,6.40
2018-07-31T09:55:52.522Z,6.28
2018-07-31T09:58:21.841Z,5.33
2018-07-31T10:00:55.576Z,5.50
2018-07-31T10:03:23.847Z,6.42
2018-07-31T10:05:52.621Z,7.42
2018-07-31T10:08:26.785Z,12.10
2018-07-31T10:10:56.017Z,16.87
2018-07-31T10:13:27.844Z,9.10
2018-07-31T10:15:57.131Z,10.93
2018-07-31T10:18:31.625Z,8.88
2018-07-31T10:21:01.133Z,11.35
2018-07-31T10:23:35.531Z,13.83
2018-07-31T10:26:04.831Z,13.80
2018-07-31T10:28:39.258Z,13.00
2018-07-31T10:31:08.827Z,11.38
2018-07-31T10:33:43.490Z,13.75
2018-07-31T10:36:14.731Z,7.45
2018-07-31T10:38:44.613Z,6.37
2018-07-31T10:41:13.246Z,9.30
2018-07-31T10:43:42.251Z,10.08
2018-07-31T10:46:10.821Z,7.62
2018-07-31T10:48:44.989Z,7.75
2018-07-31T10:51:14.304Z,3.27
2018-07-31T10:53:43.424Z,5.62
2018-07-31T10:56:12.205Z,6.97
2018-07-31T10:58:41.056Z,6.80
2018-07-31T11:01:09.792Z,7.55
2018-07-31T11:03:38.628Z,5.05
2018-07-31T11:06:08.388Z,2.95
2018-07-31T11:08:37.208Z,1.62
2018-07-31T11:11:06.097Z,4.72
2018-07-31T11:13:34.881Z,3.05
2018-07-31T11:16:05.943Z,2.98
2018-07-31T11:18:35.035Z,0.95
2018-07-31T11:21:04.054Z,1.45
2018-07-31T11:23:32.730Z,1.02
2018-07-31T11:26:01.662Z,2.05
2018-07-31T11:28:30.874Z,1.50
2018-07-31T11:30:59.428Z,1.47
2018-07-31T11:33:27.845Z,2.75
2018-07-31T11:35:56.596Z,1.45
2018-07-31T11:38:25.601Z,0.93
2018-07-31T11:40:54.332Z,2.15
2018-07-31T11:43:23.336Z,2.00
2018-07-31T11:45:52.090Z,2.22
2018-07-31T11:48:21.076Z,1.67
2018-07-31T11:50:49.812Z,2.95
2018-07-31T11:53:18.560Z,1.30
2018-07-31T11:55:47.650Z,2.42
2018-07-31T11:58:16.230Z,1.70
2018-07-31T12:00:44.720Z,1.60
2018-07-31T12:03:13.664Z,1.40
2018-07-31T12:05:42.338Z,1.27
2018-07-31T12:08:11.318Z,2.27
2018-07-31T12:10:40.217Z,2.15
2018-07-31T12:13:08.667Z,0.68
2018-07-31T12:15:37.744Z,1.57
2018-07-31T12:18:06.542Z,1.77
2018-07-31T12:20:35.302Z,1.50
2018-07-31T12:23:04.292Z,2.08
2018-07-31T12:25:32.719Z,2.15
2018-07-31T12:28:01.488Z,1.10
2018-07-31T12:30:30.407Z,1.45
2018-07-31T12:33:00.064Z,1.00
2018-07-31T12:35:28.828Z,0.82
2018-07-31T12:37:57.713Z,1.72
2018-07-31T12:40:26.644Z,2.72
2018-07-31T12:42:55.333Z,3.98
2018-07-31T12:45:24.093Z,1.05
2018-07-31T12:47:52.828Z,1.57
2018-07-31T12:50:21.684Z,1.72
2018-07-31T12:52:50.521Z,4.62
2018-07-31T12:55:19.205Z,2.08
2018-07-31T12:57:48.418Z,1.72
2018-07-31T13:00:16.782Z,1.37
2018-07-31T13:02:46.659Z,1.32
2018-07-31T13:05:15.209Z,0.82
2018-07-31T13:07:45.043Z,2.15
2018-07-31T13:10:13.613Z,2.22
2018-07-31T13:12:42.398Z,1.67
2018-07-31T13:15:11.168Z,1.70
2018-07-31T13:17:39.668Z,1.32
2018-07-31T13:20:09.446Z,1.07
2018-07-31T13:22:38.299Z,1.20
2018-07-31T13:25:06.928Z,2.83
2018-07-31T13:27:38.848Z,1.57
2018-07-31T13:30:08.011Z,1.32
2018-07-31T13:32:36.549Z,2.72
2018-07-31T13:35:05.296Z,1.35
2018-07-31T13:37:34.587Z,3.25
2018-07-31T13:40:03.773Z,1.55
2018-07-31T13:42:32.357Z,3.15
2018-07-31T13:45:06.440Z,2.80
2018-07-31T13:47:34.846Z,3.12
2018-07-31T13:50:04.529Z,2.33
2018-07-31T13:52:33.249Z,1.20
2018-07-31T13:55:02.058Z,2.27
2018-07-31T13:57:30.908Z,3.02
2018-07-31T13:59:59.619Z,1.60
2018-07-31T14:02:29.608Z,2.08
2018-07-31T14:05:01.109Z,2.45
2018-07-31T14:07:30.359Z,2.20
2018-07-31T14:09:58.733Z,2.47
2018-07-31T14:12:28.765Z,2.33
2018-07-31T14:14:57.369Z,2.30
2018-07-31T14:17:26.240Z,2.45
2018-07-31T14:19:55.901Z,3.45
2018-07-31T14:22:31.812Z,3.20
2018-07-31T14:25:00.201Z,2.75
2018-07-31T14:27:28.885Z,2.08
2018-07-31T14:30:00.580Z,0.95
2018-07-31T14:32:32.240Z,4.40
2018-07-31T14:35:00.966Z,4.35
2018-07-31T14:37:35.189Z,3.17
2018-07-31T14:41:28.888Z,2.77
2018-07-31T14:44:00.769Z,3.00
2018-07-31T14:46:35.860Z,4.33
2018-07-31T14:49:05.096Z,4.35
2018-07-31T14:51:34.933Z,3.72
2018-07-31T14:54:03.718Z,5.70
2018-07-31T14:56:35.432Z,3.52
2018-07-31T14:59:05.438Z,2.50
2018-07-31T15:01:35.281Z,4.30
2018-07-31T15:04:03.987Z,4.12
2018-07-31T15:06:32.130Z,5.22
2018-07-31T15:09:05.297Z,3.45
2018-07-31T15:11:39.824Z,3.25
2018-07-31T15:14:11.382Z,2.98
2018-07-31T15:16:49.377Z,4.80
2018-07-31T15:19:33.321Z,5.00
2018-07-31T15:22:19.489Z,5.55
2018-07-31T15:24:50.881Z,3.10
2018-07-31T15:27:25.100Z,5.10
2018-07-31T15:30:07.049Z,5.08
2018-07-31T15:32:43.961Z,3.40
2018-07-31T15:35:18.387Z,2.92
2018-07-31T15:38:09.942Z,2.33
2018-07-31T15:40:50.361Z,5.00
2018-07-31T15:43:26.627Z,2.60
2018-07-31T15:45:58.257Z,3.67
2018-07-31T15:48:29.568Z,1.90
2018-07-31T15:51:16.477Z,1.47
2018-07-31T15:54:04.492Z,2.90
2018-07-31T15:56:52.724Z,2.85
2018-07-31T15:59:28.622Z,4.03
2018-07-31T16:02:00.638Z,1.90
2018-07-31T16:04:41.351Z,1.87
2018-07-31T16:07:10.498Z,2.17
2018-07-31T16:09:52.828Z,1.55
2018-07-31T16:12:34.916Z,3.17
2018-07-31T16:15:03.638Z,2.15
2018-07-31T16:17:32.596Z,2.60
2018-07-31T16:20:15.334Z,3.22
2018-07-31T16:22:49.454Z,2.10
2018-07-31T16:25:18.616Z,2.10
2018-07-31T16:27:48.221Z,2.80
2018-07-31T16:30:16.851Z,4.53
2018-07-31T16:32:45.601Z,4.08
2018-07-31T16:35:14.392Z,1.92
2018-07-31T16:37:42.949Z,5.00
2018-07-31T16:40:11.866Z,3.22
2018-07-31T16:42:40.779Z,2.42
2018-07-31T16:45:09.176Z,3.70
2018-07-31T16:47:38.035Z,3.42
2018-07-31T16:50:07.570Z,3.17
2018-07-31T16:52:36.292Z,4.85
2018-07-31T16:55:06.300Z,2.12
2018-07-31T16:57:35.825Z,2.02
2018-07-31T17:00:05.393Z,2.27
2018-07-31T17:02:34.674Z,3.55
2018-07-31T17:05:03.157Z,4.10
2018-07-31T17:07:31.815Z,3.27
2018-07-31T17:10:00.908Z,2.22
2018-07-31T17:12:29.282Z,1.92
2018-07-31T17:14:57.788Z,2.15
2018-07-31T17:17:26.921Z,2.87
2018-07-31T17:19:55.357Z,2.20
2018-07-31T17:22:24.211Z,2.10
2018-07-31T17:24:52.964Z,2.70
2018-07-31T17:27:21.711Z,4.30
2018-07-31T17:29:50.524Z,5.22
2018-07-31T17:32:20.481Z,2.98
2018-07-31T17:34:49.125Z,3.90
2018-07-31T17:37:18.615Z,2.98
2018-07-31T17:39:47.789Z,2.17
2018-07-31T17:42:16.589Z,4.15
2018-07-31T17:44:46.159Z,3.70
2018-07-31T17:47:14.836Z,2.70
2018-07-31T17:49:43.322Z,3.83
2018-07-31T17:52:12.093Z,5.33
2018-07-31T17:54:40.994Z,2.05
2018-07-31T17:57:09.728Z,3.67
2018-07-31T17:59:38.099Z,3.87
2018-07-31T18:02:07.011Z,8.45
2018-07-31T18:04:35.606Z,3.77
2018-07-31T18:07:04.733Z,3.05
2018-07-31T18:09:33.857Z,4.50
2018-07-31T18:12:02.816Z,5.10
2018-07-31T18:14:31.492Z,5.90
2018-07-31T18:17:00.046Z,3.22
2018-07-31T18:19:28.695Z,3.50
2018-07-31T18:21:57.554Z,3.52
2018-07-31T18:24:26.145Z,4.67
2018-07-31T18:26:55.112Z,5.62
2018-07-31T18:29:23.802Z,4.22
2018-07-31T18:31:52.578Z,4.72
2018-07-31T18:34:22.390Z,5.35
2018-07-31T18:36:52.510Z,4.17
2018-07-31T18:39:21.870Z,6.00
2018-07-31T18:41:53.614Z,5.50
2018-07-31T18:44:22.368Z,5.70
2018-07-31T18:46:50.997Z,4.22
2018-07-31T18:49:20.660Z,4.83
2018-07-31T18:51:49.784Z,5.33
2018-07-31T18:54:18.633Z,3.40
2018-07-31T18:56:48.365Z,4.53
2018-07-31T18:59:17.044Z,3.92
2018-07-31T19:01:45.842Z,7.33
2018-07-31T19:04:18.096Z,5.40
2018-07-31T19:06:48.162Z,4.47
2018-07-31T19:09:17.305Z,7.15
2018-07-31T19:11:45.976Z,5.17
2018-07-31T19:14:14.637Z,5.08
2018-07-31T19:16:43.396Z,4.28
2018-07-31T19:19:12.272Z,6.00
2018-07-31T19:21:42.007Z,7.53
2018-07-31T19:24:10.774Z,4.62
2018-07-31T19:26:39.541Z,6.00
2018-07-31T19:29:08.210Z,4.62
2018-07-31T19:31:36.917Z,3.37
2018-07-31T19:34:05.971Z,3.30
2018-07-31T19:36:34.516Z,4.03
2018-07-31T19:39:05.772Z,10.40
2018-07-31T19:41:34.124Z,7.75
2018-07-31T19:44:03.124Z,4.55
2018-07-31T19:46:32.927Z,5.47
2018-07-31T19:49:01.468Z,4.58
2018-07-31T19:51:30.345Z,6.08
2018-07-31T19:53:58.884Z,7.00
2018-07-31T19:56:27.848Z,5.37
2018-07-31T19:58:56.620Z,5.47
2018-07-31T20:01:25.379Z,5.00
2018-07-31T20:03:53.977Z,7.28
2018-07-31T20:06:22.574Z,5.05
2018-07-31T20:08:51.233Z,5.85
2018-07-31T20:11:20.030Z,4.75
2018-07-31T20:13:48.877Z,4.62
2018-07-31T20:16:18.118Z,4.83
2018-07-31T20:18:48.025Z,5.00
2018-07-31T20:21:17.250Z,5.92
2018-07-31T20:23:46.351Z,7.67
2018-07-31T20:26:15.104Z,12.05
2018-07-31T20:28:44.770Z,5.33
2018-07-31T20:31:13.336Z,5.20
2018-07-31T20:33:42.112Z,6.62
2018-07-31T20:36:10.673Z,6.80
2018-07-31T20:38:40.598Z,9.03
2018-07-31T20:41:10.807Z,5.62
2018-07-31T20:43:39.381Z,10.48
2018-07-31T20:46:09.153Z,8.98
2018-07-31T20:48:40.936Z,6.70
2018-07-31T20:51:12.745Z,6.22
2018-07-31T20:53:41.401Z,7.33
2018-07-31T20:56:10.210Z,9.63
2018-07-31T20:58:38.877Z,6.92
2018-07-31T21:01:07.848Z,6.60
2018-07-31T21:03:38.997Z,6.08
2018-07-31T21:09:22.566Z,10.70
2018-07-31T21:11:52.016Z,7.37
2018-07-31T21:14:21.080Z,10.08
2018-07-31T21:16:49.807Z,7.62
2018-07-31T21:19:34.592Z,7.47
2018-07-31T21:22:03.261Z,6.78
2018-07-31T21:24:31.985Z,12.10
2018-07-31T21:27:00.839Z,8.10
2018-07-31T21:29:29.433Z,9.00
2018-07-31T21:31:58.272Z,7.80
2018-07-31T21:34:26.953Z,7.65
2018-07-31T21:36:55.946Z,7.20
2018-07-31T21:39:24.860Z,8.78
2018-07-31T21:41:53.657Z,7.75
2018-07-31T21:44:26.740Z,7.45
2018-07-31T21:46:55.504Z,9.58
2018-07-31T21:49:24.413Z,8.73
2018-07-31T21:51:54.071Z,7.40
2018-07-31T21:54:23.631Z,9.75
2018-07-31T21:56:52.429Z,7.45
2018-07-31T21:59:21.297Z,7.28
2018-07-31T22:01:49.967Z,7.55
2018-07-31T22:04:18.941Z,8.65
2018-07-31T22:06:47.646Z,10.65
2018-07-31T22:09:18.054Z,9.00
2018-07-31T22:11:46.760Z,11.50
2018-07-31T22:14:15.385Z,11.78
2018-07-31T22:16:44.342Z,9.75
2018-07-31T22:19:12.761Z,10.63
2018-07-31T22:21:41.612Z,10.35
2018-07-31T22:24:10.495Z,10.60
2018-07-31T22:26:39.279Z,10.00
2018-07-31T22:29:08.937Z,10.38
2018-07-31T22:31:38.544Z,10.05
2018-07-31T22:34:08.195Z,12.15
2018-07-31T22:36:37.245Z,10.10
2018-07-31T22:39:08.187Z,9.55
2018-07-31T22:41:36.624Z,11.55
2018-07-31T22:44:05.487Z,8.83
2018-07-31T22:46:34.044Z,9.48
2018-07-31T22:49:02.875Z,8.60
2018-07-31T22:51:31.260Z,10.13
2018-07-31T22:54:00.140Z,16.48
2018-07-31T22:56:28.731Z,10.85
2018-07-31T22:58:57.352Z,10.98
2018-07-31T23:01:26.009Z,8.03
2018-07-31T23:03:54.864Z,11.20
2018-07-31T23:06:24.604Z,11.00
2018-07-31T23:08:53.603Z,9.18
2018-07-31T23:11:22.857Z,8.93
2018-07-31T23:13:51.842Z,13.15
2018-07-31T23:16:20.302Z,9.75
2018-07-31T23:18:49.284Z,10.35
2018-07-31T23:21:18.578Z,9.93
2018-07-31T23:23:47.233Z,9.65
2018-07-31T23:26:15.923Z,10.55
2018-07-31T23:28:44.856Z,11.18
2018-07-31T23:31:13.412Z,9.78
2018-07-31T23:33:42.153Z,11.30
2018-07-31T23:36:12.339Z,9.65
2018-07-31T23:38:41.961Z,10.40
2018-07-31T23:41:10.829Z,10.08
2018-07-31T23:43:40.791Z,10.00
2018-07-31T23:46:09.429Z,10.28
2018-07-31T23:48:38.466Z,9.43
2018-07-31T23:51:07.978Z,9.70
2018-07-31T23:53:36.828Z,11.08
2018-07-31T23:56:05.367Z,12.45
2018-07-31T23:58:34.402Z,12.33
